createdAt,value
2022-07-28T00:00:30.993Z,1014.53
2022-07-28T00:01:31.349Z,1014.53
2022-07-28T00:02:31.648Z,1014.61
2022-07-28T00:03:31.894Z,1014.58
2022-07-28T00:04:32.213Z,1014.58
2022-07-28T00:05:32.543Z,1014.55
2022-07-28T00:06:32.836Z,1014.55
2022-07-28T00:07:33.157Z,1014.57
2022-07-28T00:08:33.484Z,1014.61
2022-07-28T00:09:33.815Z,1014.58
2022-07-28T00:10:34.156Z,1014.55
2022-07-28T00:11:34.487Z,1014.58
2022-07-28T00:12:35.786Z,1014.58
2022-07-28T00:13:35.037Z,1014.61
2022-07-28T00:14:35.380Z,1014.61
2022-07-28T00:15:35.709Z,1014.58
2022-07-28T00:16:36.101Z,1014.65
2022-07-28T00:17:36.313Z,1014.61
2022-07-28T00:18:36.628Z,1014.63
2022-07-28T00:19:36.946Z,1014.61
2022-07-28T00:20:37.281Z,1014.59
2022-07-28T00:21:37.599Z,1014.61
2022-07-28T00:22:37.928Z,1014.66
2022-07-28T00:23:38.649Z,1014.65
2022-07-28T00:24:38.519Z,1014.63
2022-07-28T00:25:38.853Z,1014.67
2022-07-28T00:26:39.171Z,1014.62
2022-07-28T00:27:39.502Z,1014.66
2022-07-28T00:28:39.821Z,1014.62
2022-07-28T00:29:42.536Z,1014.63
2022-07-28T00:30:41.462Z,1014.59
2022-07-28T00:31:40.736Z,1014.69
2022-07-28T00:32:41.012Z,1014.57
2022-07-28T00:33:41.333Z,1014.69
2022-07-28T00:34:42.502Z,1014.68
2022-07-28T00:35:42.012Z,1014.67
2022-07-28T00:36:43.313Z,1014.68
2022-07-28T00:37:42.602Z,1014.72
2022-07-28T00:38:43.938Z,1014.73
2022-07-28T00:39:43.188Z,1014.76
2022-07-28T00:40:43.525Z,1014.72
2022-07-28T00:41:43.843Z,1014.68
2022-07-28T00:42:44.176Z,1014.69
2022-07-28T00:43:44.496Z,1014.72
2022-07-28T00:44:44.825Z,1014.68
2022-07-28T00:45:45.159Z,1014.68
2022-07-28T00:46:45.690Z,1014.70
2022-07-28T00:47:45.756Z,1014.72
2022-07-28T00:48:46.171Z,1014.65
2022-07-28T00:49:46.386Z,1014.72
2022-07-28T00:50:46.718Z,1014.68
2022-07-28T00:51:47.039Z,1014.66
2022-07-28T00:52:47.368Z,1014.69
2022-07-28T00:53:47.691Z,1014.66
2022-07-28T00:54:48.028Z,1014.66
2022-07-28T00:56:03.388Z,1014.66
2022-07-28T00:56:49.672Z,1014.66
2022-07-28T00:57:48.940Z,1014.70
2022-07-28T00:58:49.283Z,1014.67
2022-07-28T00:59:49.603Z,1014.71
2022-07-28T01:00:49.945Z,1014.73
2022-07-28T01:01:50.335Z,1014.68
2022-07-28T01:02:50.726Z,1014.69
2022-07-28T01:03:50.820Z,1014.71
2022-07-28T01:04:51.153Z,1014.68
2022-07-28T01:05:51.496Z,1014.65
2022-07-28T01:06:51.824Z,1014.67
2022-07-28T01:07:52.084Z,1014.71
2022-07-28T01:08:52.414Z,1014.66
2022-07-28T01:09:52.733Z,1014.67
2022-07-28T01:10:53.079Z,1014.68
2022-07-28T01:11:53.407Z,1014.65
2022-07-28T01:12:53.735Z,1014.66
2022-07-28T01:13:54.076Z,1014.61
2022-07-28T01:14:54.404Z,1014.63
2022-07-28T01:15:54.800Z,1014.63
2022-07-28T01:16:55.036Z,1014.64
2022-07-28T01:17:55.368Z,1014.59
2022-07-28T01:18:55.709Z,1014.66
2022-07-28T01:19:56.037Z,1014.62
2022-07-28T01:20:56.392Z,1014.62
2022-07-28T01:21:56.691Z,1014.66
2022-07-28T01:22:57.030Z,1014.64
2022-07-28T01:23:57.338Z,1014.65
2022-07-28T01:24:57.668Z,1014.69
2022-07-28T01:25:58.009Z,1014.61
2022-07-28T01:26:58.346Z,1014.62
2022-07-28T01:27:58.668Z,1014.63
2022-07-28T01:28:59.045Z,1014.61
2022-07-28T01:29:59.252Z,1014.61
2022-07-28T01:30:59.649Z,1014.63
2022-07-28T01:31:59.896Z,1014.59
2022-07-28T01:33:00.220Z,1014.60
2022-07-28T01:34:00.541Z,1014.65
2022-07-28T01:35:00.873Z,1014.64
2022-07-28T01:36:01.229Z,1014.59
2022-07-28T01:37:01.558Z,1014.62
2022-07-28T01:38:01.884Z,1014.66
2022-07-28T01:39:02.212Z,1014.55
2022-07-28T01:40:02.527Z,1014.62
2022-07-28T01:41:02.884Z,1014.56
2022-07-28T01:42:03.210Z,1014.57
2022-07-28T01:43:03.537Z,1014.57
2022-07-28T01:44:03.854Z,1014.59
2022-07-28T01:45:04.197Z,1014.58
2022-07-28T01:46:04.590Z,1014.62
2022-07-28T01:47:04.805Z,1014.60
2022-07-28T01:48:05.125Z,1014.60
2022-07-28T01:49:05.487Z,1014.62
2022-07-28T01:50:05.691Z,1014.55
2022-07-28T01:51:06.039Z,1014.60
2022-07-28T01:52:06.358Z,1014.59
2022-07-28T01:53:06.703Z,1014.61
2022-07-28T01:54:07.027Z,1014.60
2022-07-28T01:55:07.371Z,1014.59
2022-07-28T01:56:07.699Z,1014.59
2022-07-28T01:57:08.038Z,1014.59
2022-07-28T01:58:08.337Z,1014.60
2022-07-28T01:59:08.652Z,1014.65
2022-07-28T02:00:08.987Z,1014.60
2022-07-28T02:01:09.380Z,1014.63
2022-07-28T02:02:09.641Z,1014.58
2022-07-28T02:03:09.861Z,1014.59
2022-07-28T02:04:10.479Z,1014.56
2022-07-28T02:05:10.552Z,1014.59
2022-07-28T02:06:10.794Z,1014.57
2022-07-28T02:07:11.150Z,1014.60
2022-07-28T02:08:11.359Z,1014.56
2022-07-28T02:09:11.716Z,1014.56
2022-07-28T02:10:11.923Z,1014.56
2022-07-28T02:11:12.263Z,1014.55
2022-07-28T02:12:12.590Z,1014.61
2022-07-28T02:13:12.933Z,1014.59
2022-07-28T02:14:13.589Z,1014.54
2022-07-28T02:15:13.505Z,1014.58
2022-07-28T02:16:13.905Z,1014.54
2022-07-28T02:17:14.159Z,1014.49
2022-07-28T02:18:14.476Z,1014.58
2022-07-28T02:19:14.815Z,1014.58
2022-07-28T02:20:15.151Z,1014.60
2022-07-28T02:21:15.479Z,1014.54
2022-07-28T02:22:15.795Z,1014.53
2022-07-28T02:23:16.135Z,1014.58
2022-07-28T02:24:17.129Z,1014.54
2022-07-28T02:25:16.694Z,1014.53
2022-07-28T02:26:17.921Z,1014.49
2022-07-28T02:27:17.325Z,1014.53
2022-07-28T02:28:17.637Z,1014.51
2022-07-28T02:29:40.419Z,1014.52
2022-07-28T02:30:19.299Z,1014.48
2022-07-28T02:31:18.674Z,1014.47
2022-07-28T02:32:28.153Z,1014.47
2022-07-28T02:33:33.082Z,1014.46
2022-07-28T02:34:22.275Z,1014.54
2022-07-28T02:35:19.892Z,1014.56
2022-07-28T02:36:20.154Z,1014.56
2022-07-28T02:37:28.156Z,1014.62
2022-07-28T02:38:20.747Z,1014.63
2022-07-28T02:39:21.109Z,1014.68
2022-07-28T02:40:21.341Z,1014.67
2022-07-28T02:41:21.710Z,1014.68
2022-07-28T02:42:21.949Z,1014.65
2022-07-28T02:43:22.302Z,1014.70
2022-07-28T02:44:22.656Z,1014.68
2022-07-28T02:45:22.734Z,1014.69
2022-07-28T02:46:23.126Z,1014.66
2022-07-28T02:47:23.358Z,1014.66
2022-07-28T02:48:23.735Z,1014.66
2022-07-28T02:49:24.019Z,1014.66
2022-07-28T02:50:24.346Z,1014.65
2022-07-28T02:51:24.586Z,1014.71
2022-07-28T02:52:24.848Z,1014.68
2022-07-28T02:53:25.062Z,1014.76
2022-07-28T02:54:25.758Z,1014.72
2022-07-28T02:55:25.714Z,1014.72
2022-07-28T02:56:25.973Z,1014.74
2022-07-28T02:57:26.242Z,1014.79
2022-07-28T02:58:26.490Z,1014.75
2022-07-28T02:59:26.741Z,1014.77
2022-07-28T03:00:26.979Z,1014.82
2022-07-28T03:01:27.378Z,1014.84
2022-07-28T03:02:27.571Z,1014.85
2022-07-28T03:03:27.983Z,1014.75
2022-07-28T03:04:28.204Z,1014.79
2022-07-28T03:05:28.599Z,1014.81
2022-07-28T03:06:29.147Z,1014.84
2022-07-28T03:07:29.083Z,1014.82
2022-07-28T03:08:29.372Z,1014.84
2022-07-28T03:09:29.603Z,1014.86
2022-07-28T03:10:33.427Z,1014.87
2022-07-28T03:11:30.132Z,1014.86
2022-07-28T03:12:30.398Z,1014.84
2022-07-28T03:13:30.670Z,1014.87
2022-07-28T03:14:30.916Z,1014.84
2022-07-28T03:15:31.331Z,1014.90
2022-07-28T03:16:31.467Z,1014.90
2022-07-28T03:17:31.691Z,1014.88
2022-07-28T03:18:31.965Z,1014.95
2022-07-28T03:19:32.230Z,1014.89
2022-07-28T03:20:32.492Z,1014.94
2022-07-28T03:21:32.762Z,1014.89
2022-07-28T03:22:33.022Z,1014.92
2022-07-28T03:23:33.292Z,1014.93
2022-07-28T03:24:33.542Z,1015.01
2022-07-28T03:25:33.785Z,1014.98
2022-07-28T03:26:34.042Z,1014.99
2022-07-28T03:27:34.304Z,1015.02
2022-07-28T03:28:34.683Z,1015.05
2022-07-28T03:29:34.783Z,1015.04
2022-07-28T03:30:35.126Z,1015.07
2022-07-28T03:31:35.369Z,1015.05
2022-07-28T03:32:35.622Z,1015.09
2022-07-28T03:33:35.876Z,1015.13
2022-07-28T03:34:36.146Z,1015.12
2022-07-28T03:35:36.412Z,1015.14
2022-07-28T03:36:36.678Z,1015.15
2022-07-28T03:37:36.960Z,1015.16
2022-07-28T03:38:37.218Z,1015.17
2022-07-28T03:39:37.455Z,1015.21
2022-07-28T03:40:37.715Z,1015.19
2022-07-28T03:41:38.008Z,1015.18
2022-07-28T03:42:38.274Z,1015.22
2022-07-28T03:43:38.591Z,1015.20
2022-07-28T03:44:38.772Z,1015.20
2022-07-28T03:45:40.935Z,1015.26
2022-07-28T03:46:39.335Z,1015.14
2022-07-28T03:47:39.576Z,1015.22
2022-07-28T03:48:39.879Z,1015.21
2022-07-28T03:49:40.102Z,1015.23
2022-07-28T03:50:40.358Z,1015.24
2022-07-28T03:51:40.628Z,1015.27
2022-07-28T03:52:40.877Z,1015.26
2022-07-28T03:53:41.140Z,1015.29
2022-07-28T03:54:41.398Z,1015.27
2022-07-28T03:55:41.673Z,1015.30
2022-07-28T03:56:41.941Z,1015.30
2022-07-28T03:57:42.201Z,1015.32
2022-07-28T03:58:42.470Z,1015.34
2022-07-28T03:59:42.752Z,1015.34
2022-07-28T04:00:43.010Z,1015.36
2022-07-28T04:01:43.326Z,1015.34
2022-07-28T04:02:43.757Z,1015.40
2022-07-28T04:03:44.499Z,1015.39
2022-07-28T04:04:44.232Z,1015.41
2022-07-28T04:05:44.452Z,1015.40
2022-07-28T04:06:44.731Z,1015.41
2022-07-28T04:07:45.001Z,1015.39
2022-07-28T04:08:45.273Z,1015.41
2022-07-28T04:09:45.537Z,1015.33
2022-07-28T04:10:45.805Z,1015.35
2022-07-28T04:11:46.093Z,1015.32
2022-07-28T04:12:46.365Z,1015.39
2022-07-28T04:13:46.649Z,1015.34
2022-07-28T04:14:46.926Z,1015.30
2022-07-28T04:15:47.198Z,1015.30
2022-07-28T04:16:47.561Z,1015.29
2022-07-28T04:17:47.727Z,1015.29
2022-07-28T04:18:47.987Z,1015.31
2022-07-28T04:19:48.256Z,1015.34
2022-07-28T04:20:48.578Z,1015.34
2022-07-28T04:21:48.837Z,1015.31
2022-07-28T04:22:49.112Z,1015.37
2022-07-28T04:23:49.377Z,1015.32
2022-07-28T04:24:49.654Z,1015.27
2022-07-28T04:25:49.908Z,1015.29
2022-07-28T04:26:50.189Z,1015.34
2022-07-28T04:27:50.470Z,1015.29
2022-07-28T04:28:50.737Z,1015.27
2022-07-28T04:29:51.019Z,1015.34
2022-07-28T04:30:51.347Z,1015.34
2022-07-28T04:31:51.621Z,1015.34
2022-07-28T04:32:51.909Z,1015.35
2022-07-28T04:33:52.179Z,1015.30
2022-07-28T04:34:52.432Z,1015.34
2022-07-28T04:35:52.805Z,1015.40
2022-07-28T04:36:52.972Z,1015.34
2022-07-28T04:37:53.243Z,1015.41
2022-07-28T04:38:53.530Z,1015.43
2022-07-28T04:39:53.795Z,1015.47
2022-07-28T04:40:54.068Z,1015.50
2022-07-28T04:41:54.346Z,1015.48
2022-07-28T04:42:54.626Z,1015.46
2022-07-28T04:43:54.895Z,1015.46
2022-07-28T04:44:55.175Z,1015.52
2022-07-28T04:45:55.524Z,1015.45
2022-07-28T04:46:55.807Z,1015.47
2022-07-28T04:47:56.067Z,1015.46
2022-07-28T04:48:56.378Z,1015.51
2022-07-28T04:49:56.665Z,1015.48
2022-07-28T04:50:56.966Z,1015.44
2022-07-28T04:51:57.256Z,1015.44
2022-07-28T04:52:57.577Z,1015.40
2022-07-28T04:53:57.829Z,1015.39
2022-07-28T04:54:58.110Z,1015.40
2022-07-28T04:55:58.493Z,1015.38
2022-07-28T04:56:58.668Z,1015.42
2022-07-28T04:57:58.919Z,1015.36
2022-07-28T04:58:59.202Z,1015.42
2022-07-28T04:59:59.450Z,1015.42
2022-07-28T05:00:59.763Z,1015.45
2022-07-28T05:01:59.979Z,1015.40
2022-07-28T05:03:00.269Z,1015.36
2022-07-28T05:04:00.532Z,1015.43
2022-07-28T05:05:00.864Z,1015.42
2022-07-28T05:06:01.114Z,1015.42
2022-07-28T05:07:01.412Z,1015.45
2022-07-28T05:08:02.660Z,1015.38
2022-07-28T05:09:01.893Z,1015.44
2022-07-28T05:10:02.263Z,1015.42
2022-07-28T05:11:02.416Z,1015.38
2022-07-28T05:12:02.715Z,1015.37
2022-07-28T05:13:03.026Z,1015.36
2022-07-28T05:14:03.306Z,1015.32
2022-07-28T05:15:03.595Z,1015.30
2022-07-28T05:16:03.923Z,1015.28
2022-07-28T05:17:04.166Z,1015.24
2022-07-28T05:18:04.455Z,1015.27
2022-07-28T05:19:04.746Z,1015.27
2022-07-28T05:20:05.045Z,1015.26
2022-07-28T05:21:05.334Z,1015.36
2022-07-28T05:22:05.643Z,1015.33
2022-07-28T05:23:05.869Z,1015.30
2022-07-28T05:24:06.171Z,1015.31
2022-07-28T05:25:06.447Z,1015.32
2022-07-28T05:26:06.739Z,1015.33
2022-07-28T05:27:07.049Z,1015.36
2022-07-28T05:28:07.339Z,1015.38
2022-07-28T05:29:07.611Z,1015.36
2022-07-28T05:30:07.905Z,1015.40
2022-07-28T05:31:08.189Z,1015.36
2022-07-28T05:32:17.187Z,1015.39
2022-07-28T05:33:09.705Z,1015.34
2022-07-28T05:34:09.024Z,1015.32
2022-07-28T05:35:09.304Z,1015.33
2022-07-28T05:36:09.591Z,1015.31
2022-07-28T05:37:09.895Z,1015.35
2022-07-28T05:38:11.109Z,1015.30
2022-07-28T05:39:10.485Z,1015.32
2022-07-28T05:40:10.761Z,1015.32
2022-07-28T05:41:11.056Z,1015.34
2022-07-28T05:42:11.356Z,1015.31
2022-07-28T05:43:11.627Z,1015.31
2022-07-28T05:44:12.286Z,1015.27
2022-07-28T05:45:16.974Z,1015.30
2022-07-28T05:46:13.444Z,1015.30
2022-07-28T05:47:12.659Z,1015.29
2022-07-28T05:48:12.929Z,1015.28
2022-07-28T05:49:13.280Z,1015.30
2022-07-28T05:50:13.494Z,1015.31
2022-07-28T05:51:13.771Z,1015.33
2022-07-28T05:52:14.050Z,1015.33
2022-07-28T05:53:14.388Z,1015.28
2022-07-28T05:54:14.975Z,1015.32
2022-07-28T05:55:15.842Z,1015.28
2022-07-28T05:56:15.199Z,1015.31
2022-07-28T05:57:15.574Z,1015.33
2022-07-28T05:58:15.724Z,1015.27
2022-07-28T05:59:16.006Z,1015.34
2022-07-28T06:00:16.275Z,1015.33
2022-07-28T06:01:16.674Z,1015.34
2022-07-28T06:02:16.811Z,1015.30
2022-07-28T06:03:17.127Z,1015.29
2022-07-28T06:04:26.397Z,1015.32
2022-07-28T06:05:18.751Z,1015.27
2022-07-28T06:06:18.120Z,1015.40
2022-07-28T06:07:18.401Z,1015.37
2022-07-28T06:08:18.659Z,1015.41
2022-07-28T06:09:18.940Z,1015.35
2022-07-28T06:10:19.218Z,1015.36
2022-07-28T06:11:22.774Z,1015.34
2022-07-28T06:12:19.829Z,1015.34
2022-07-28T06:13:20.128Z,1015.41
2022-07-28T06:14:20.468Z,1015.38
2022-07-28T06:15:20.775Z,1015.42
2022-07-28T06:16:21.210Z,1015.45
2022-07-28T06:17:21.414Z,1015.39
2022-07-28T06:18:21.712Z,1015.41
2022-07-28T06:19:22.014Z,1015.41
2022-07-28T06:20:22.275Z,1015.44
2022-07-28T06:21:22.554Z,1015.42
2022-07-28T06:22:22.834Z,1015.43
2022-07-28T06:23:23.135Z,1015.43
2022-07-28T06:24:23.416Z,1015.42
2022-07-28T06:25:23.709Z,1015.42
2022-07-28T06:26:24.105Z,1015.43
2022-07-28T06:27:24.220Z,1015.43
2022-07-28T06:28:24.527Z,1015.45
2022-07-28T06:29:24.762Z,1015.38
2022-07-28T06:30:25.045Z,1015.40
2022-07-28T06:31:25.372Z,1015.37
2022-07-28T06:32:25.571Z,1015.36
2022-07-28T06:33:25.957Z,1015.35
2022-07-28T06:34:26.113Z,1015.33
2022-07-28T06:35:26.383Z,1015.34
2022-07-28T06:36:26.773Z,1015.29
2022-07-28T06:37:26.937Z,1015.31
2022-07-28T06:38:27.204Z,1015.32
2022-07-28T06:39:27.563Z,1015.31
2022-07-28T06:40:27.697Z,1015.31
2022-07-28T06:41:28.010Z,1015.30
2022-07-28T06:42:28.276Z,1015.30
2022-07-28T06:43:29.627Z,1015.32
2022-07-28T06:44:48.262Z,1015.33
2022-07-28T06:45:30.090Z,1015.35
2022-07-28T06:46:29.489Z,1015.28
2022-07-28T06:47:29.759Z,1015.35
2022-07-28T06:48:30.070Z,1015.36
2022-07-28T06:49:30.390Z,1015.36
2022-07-28T06:50:30.560Z,1015.37
2022-07-28T06:51:30.899Z,1015.43
2022-07-28T06:52:31.154Z,1015.42
2022-07-28T06:53:33.762Z,1015.43
2022-07-28T06:54:31.702Z,1015.38
2022-07-28T06:55:35.343Z,1015.37
2022-07-28T06:56:32.223Z,1015.37
2022-07-28T06:57:33.569Z,1015.36
2022-07-28T06:58:32.813Z,1015.39
2022-07-28T06:59:33.074Z,1015.37
2022-07-28T07:00:33.466Z,1015.40
2022-07-28T07:01:33.735Z,1015.39
2022-07-28T07:02:33.876Z,1015.37
2022-07-28T07:03:34.189Z,1015.35
2022-07-28T07:04:34.589Z,1015.43
2022-07-28T07:05:34.810Z,1015.46
2022-07-28T07:06:35.080Z,1015.43
2022-07-28T07:07:39.711Z,1015.50
2022-07-28T07:08:36.580Z,1015.42
2022-07-28T07:09:35.938Z,1015.42
2022-07-28T07:10:36.199Z,1015.40
2022-07-28T07:11:36.479Z,1015.44
2022-07-28T07:12:36.765Z,1015.41
2022-07-28T07:13:37.090Z,1015.38
2022-07-28T07:14:37.335Z,1015.38
2022-07-28T07:15:37.613Z,1015.45
2022-07-28T07:16:37.918Z,1015.45
2022-07-28T07:17:38.178Z,1015.47
2022-07-28T07:18:38.436Z,1015.46
2022-07-28T07:19:38.708Z,1015.40
2022-07-28T07:20:38.992Z,1015.47
2022-07-28T07:21:39.283Z,1015.43
2022-07-28T07:22:39.544Z,1015.46
2022-07-28T07:23:39.818Z,1015.49
2022-07-28T07:24:40.082Z,1015.45
2022-07-28T07:25:40.339Z,1015.45
2022-07-28T07:26:40.617Z,1015.46
2022-07-28T07:27:40.886Z,1015.42
2022-07-28T07:28:41.138Z,1015.47
2022-07-28T07:29:41.397Z,1015.51
2022-07-28T07:30:41.649Z,1015.47
2022-07-28T07:31:41.981Z,1015.51
2022-07-28T07:32:42.252Z,1015.55
2022-07-28T07:33:42.510Z,1015.52
2022-07-28T07:34:42.760Z,1015.51
2022-07-28T07:35:43.041Z,1015.53
2022-07-28T07:36:43.321Z,1015.53
2022-07-28T07:37:43.571Z,1015.54
2022-07-28T07:38:43.864Z,1015.51
2022-07-28T07:39:44.139Z,1015.51
2022-07-28T07:40:44.423Z,1015.52
2022-07-28T07:41:44.702Z,1015.55
2022-07-28T07:42:45.036Z,1015.55
2022-07-28T07:43:47.755Z,1015.61
2022-07-28T07:44:50.209Z,1015.54
2022-07-28T07:45:45.987Z,1015.55
2022-07-28T07:46:46.441Z,1015.63
2022-07-28T07:47:47.466Z,1015.54
2022-07-28T07:48:46.835Z,1015.54
2022-07-28T07:49:47.111Z,1015.60
2022-07-28T07:50:51.835Z,1015.58
2022-07-28T07:51:48.648Z,1015.57
2022-07-28T07:52:47.870Z,1015.54
2022-07-28T07:53:48.109Z,1015.63
2022-07-28T07:54:48.370Z,1015.64
2022-07-28T07:55:48.638Z,1015.60
2022-07-28T07:56:48.909Z,1015.64
2022-07-28T07:57:49.213Z,1015.65
2022-07-28T07:58:53.620Z,1015.62
2022-07-28T07:59:50.810Z,1015.62
2022-07-28T08:00:50.111Z,1015.63
2022-07-28T08:01:50.418Z,1015.60
2022-07-28T08:02:50.643Z,1015.62
2022-07-28T08:03:50.885Z,1015.67
2022-07-28T08:04:52.189Z,1015.65
2022-07-28T08:05:51.555Z,1015.68
2022-07-28T08:06:51.823Z,1015.71
2022-07-28T08:07:52.074Z,1015.64
2022-07-28T08:08:52.369Z,1015.68
2022-07-28T08:09:52.625Z,1015.72
2022-07-28T08:10:52.876Z,1015.69
2022-07-28T08:11:53.158Z,1015.72
2022-07-28T08:12:53.404Z,1015.70
2022-07-28T08:13:53.682Z,1015.72
2022-07-28T08:14:53.937Z,1015.70
2022-07-28T08:15:54.246Z,1015.70
2022-07-28T08:16:54.487Z,1015.70
2022-07-28T08:17:54.770Z,1015.66
2022-07-28T08:18:55.021Z,1015.69
2022-07-28T08:19:55.301Z,1015.66
2022-07-28T08:20:55.566Z,1015.61
2022-07-28T08:21:55.866Z,1015.67
2022-07-28T08:22:56.130Z,1015.69
2022-07-28T08:23:56.414Z,1015.65
2022-07-28T08:24:56.692Z,1015.66
2022-07-28T08:25:56.964Z,1015.66
2022-07-28T08:26:57.253Z,1015.67
2022-07-28T08:27:57.513Z,1015.67
2022-07-28T08:28:57.806Z,1015.70
2022-07-28T08:29:58.054Z,1015.64
2022-07-28T08:30:58.394Z,1015.63
2022-07-28T08:31:58.684Z,1015.64
2022-07-28T08:32:58.944Z,1015.65
2022-07-28T08:33:59.206Z,1015.67
2022-07-28T08:35:29.970Z,1015.64
2022-07-28T08:36:00.824Z,1015.63
2022-07-28T08:37:00.155Z,1015.60
2022-07-28T08:38:00.399Z,1015.63
2022-07-28T08:39:00.659Z,1015.64
2022-07-28T08:40:00.920Z,1015.68
2022-07-28T08:41:01.177Z,1015.64
2022-07-28T08:42:01.448Z,1015.63
2022-07-28T08:43:01.703Z,1015.63
2022-07-28T08:44:01.951Z,1015.63
2022-07-28T08:45:02.220Z,1015.63
2022-07-28T08:46:02.562Z,1015.61
2022-07-28T08:47:02.788Z,1015.65
2022-07-28T08:48:10.274Z,1015.57
2022-07-28T08:49:04.308Z,1015.57
2022-07-28T08:50:03.513Z,1015.58
2022-07-28T08:51:03.763Z,1015.57
2022-07-28T08:52:04.024Z,1015.58
2022-07-28T08:53:04.303Z,1015.59
2022-07-28T08:54:04.574Z,1015.61
2022-07-28T08:55:04.815Z,1015.62
2022-07-28T08:56:05.076Z,1015.61
2022-07-28T08:57:05.339Z,1015.62
2022-07-28T08:58:05.584Z,1015.59
2022-07-28T08:59:05.857Z,1015.62
2022-07-28T09:00:06.140Z,1015.64
2022-07-28T09:01:06.393Z,1015.59
2022-07-28T09:02:06.719Z,1015.61
2022-07-28T09:03:07.012Z,1015.66
2022-07-28T09:04:07.310Z,1015.68
2022-07-28T09:05:07.567Z,1015.66
2022-07-28T09:06:07.831Z,1015.65
2022-07-28T09:07:08.091Z,1015.69
2022-07-28T09:08:08.372Z,1015.66
2022-07-28T09:09:08.621Z,1015.66
2022-07-28T09:10:08.880Z,1015.64
2022-07-28T09:11:09.156Z,1015.66
2022-07-28T09:12:09.412Z,1015.60
2022-07-28T09:13:09.709Z,1015.65
2022-07-28T09:14:10.026Z,1015.69
2022-07-28T09:15:10.264Z,1015.63
2022-07-28T09:16:10.566Z,1015.65
2022-07-28T09:17:10.856Z,1015.63
2022-07-28T09:18:11.109Z,1015.61
2022-07-28T09:19:11.356Z,1015.65
2022-07-28T09:20:11.802Z,1015.62
2022-07-28T09:21:11.944Z,1015.67
2022-07-28T09:22:12.255Z,1015.65
2022-07-28T09:23:42.158Z,1015.64
2022-07-28T09:24:14.081Z,1015.64
2022-07-28T09:25:13.175Z,1015.65
2022-07-28T09:26:13.467Z,1015.61
2022-07-28T09:27:13.801Z,1015.60
2022-07-28T09:28:14.063Z,1015.67
2022-07-28T09:29:14.325Z,1015.71
2022-07-28T09:30:14.605Z,1015.65
2022-07-28T09:31:14.894Z,1015.64
2022-07-28T09:32:15.193Z,1015.63
2022-07-28T09:33:42.475Z,1015.66
2022-07-28T09:34:17.168Z,1015.62
2022-07-28T09:35:16.004Z,1015.64
2022-07-28T09:36:16.453Z,1015.68
2022-07-28T09:37:16.634Z,1015.67
2022-07-28T09:38:16.747Z,1015.67
2022-07-28T09:39:17.014Z,1015.68
2022-07-28T09:40:17.284Z,1015.72
2022-07-28T09:41:17.557Z,1015.70
2022-07-28T09:42:17.826Z,1015.69
2022-07-28T09:43:18.125Z,1015.71
2022-07-28T09:44:18.397Z,1015.64
2022-07-28T09:45:23.689Z,1015.62
2022-07-28T09:46:20.165Z,1015.62
2022-07-28T09:47:19.462Z,1015.59
2022-07-28T09:48:19.637Z,1015.58
2022-07-28T09:49:21.931Z,1015.58
2022-07-28T09:50:21.121Z,1015.64
2022-07-28T09:51:20.307Z,1015.65
2022-07-28T09:52:20.569Z,1015.68
2022-07-28T09:53:20.832Z,1015.66
2022-07-28T09:54:21.071Z,1015.63
2022-07-28T09:55:21.332Z,1015.66
2022-07-28T09:56:21.593Z,1015.58
2022-07-28T09:57:22.860Z,1015.58
2022-07-28T09:58:22.193Z,1015.61
2022-07-28T09:59:23.946Z,1015.54
2022-07-28T10:00:22.815Z,1015.58
2022-07-28T10:01:24.412Z,1015.58
2022-07-28T10:02:23.533Z,1015.57
2022-07-28T10:03:23.706Z,1015.55
2022-07-28T10:04:23.967Z,1015.56
2022-07-28T10:05:24.234Z,1015.56
2022-07-28T10:06:24.475Z,1015.59
2022-07-28T10:07:24.737Z,1015.55
2022-07-28T10:08:24.986Z,1015.55
2022-07-28T10:09:25.237Z,1015.59
2022-07-28T10:10:25.586Z,1015.55
2022-07-28T10:11:25.849Z,1015.55
2022-07-28T10:12:26.122Z,1015.51
2022-07-28T10:13:26.374Z,1015.51
2022-07-28T10:14:26.648Z,1015.43
2022-07-28T10:15:26.921Z,1015.43
2022-07-28T10:16:27.208Z,1015.40
2022-07-28T10:17:27.493Z,1015.47
2022-07-28T10:18:27.761Z,1015.49
2022-07-28T10:19:28.040Z,1015.49
2022-07-28T10:20:28.304Z,1015.44
2022-07-28T10:21:28.545Z,1015.47
2022-07-28T10:22:28.885Z,1015.46
2022-07-28T10:23:29.154Z,1015.40
2022-07-28T10:24:29.470Z,1015.38
2022-07-28T10:25:29.723Z,1015.39
2022-07-28T10:26:30.016Z,1015.42
2022-07-28T10:27:30.292Z,1015.43
2022-07-28T10:28:30.557Z,1015.43
2022-07-28T10:29:30.817Z,1015.40
2022-07-28T10:30:31.110Z,1015.38
2022-07-28T10:31:31.468Z,1015.41
2022-07-28T10:32:31.784Z,1015.38
2022-07-28T10:33:32.008Z,1015.41
2022-07-28T10:34:32.259Z,1015.43
2022-07-28T10:35:32.558Z,1015.42
2022-07-28T10:36:33.774Z,1015.40
2022-07-28T10:37:33.099Z,1015.41
2022-07-28T10:38:33.360Z,1015.34
2022-07-28T10:39:33.630Z,1015.36
2022-07-28T10:40:33.893Z,1015.39
2022-07-28T10:41:34.141Z,1015.37
2022-07-28T10:42:34.412Z,1015.35
2022-07-28T10:43:34.672Z,1015.34
2022-07-28T10:44:34.932Z,1015.40
2022-07-28T10:46:03.328Z,1015.34
2022-07-28T10:46:36.485Z,1015.37
2022-07-28T10:47:36.415Z,1015.34
2022-07-28T10:48:36.113Z,1015.31
2022-07-28T10:49:36.228Z,1015.31
2022-07-28T10:50:36.518Z,1015.28
2022-07-28T10:51:48.705Z,1015.31
2022-07-28T10:52:47.329Z,1015.27
2022-07-28T10:53:38.288Z,1015.28
2022-07-28T10:54:37.622Z,1015.24
2022-07-28T10:55:37.780Z,1015.34
2022-07-28T10:56:38.093Z,1015.28
2022-07-28T10:57:38.349Z,1015.32
2022-07-28T10:58:38.588Z,1015.31
2022-07-28T10:59:38.860Z,1015.28
2022-07-28T11:00:55.050Z,1015.29
2022-07-28T11:01:49.781Z,1015.20
2022-07-28T11:02:40.815Z,1015.25
2022-07-28T11:03:40.576Z,1015.27
2022-07-28T11:04:40.274Z,1015.26
2022-07-28T11:05:40.547Z,1015.25
2022-07-28T11:06:40.812Z,1015.28
2022-07-28T11:07:41.085Z,1015.28
2022-07-28T11:08:41.333Z,1015.30
2022-07-28T11:09:41.598Z,1015.26
2022-07-28T11:10:41.924Z,1015.31
2022-07-28T11:11:42.174Z,1015.26
2022-07-28T11:12:42.445Z,1015.27
2022-07-28T11:13:43.644Z,1015.26
2022-07-28T11:14:42.966Z,1015.27
2022-07-28T11:15:43.302Z,1015.20
2022-07-28T11:16:43.570Z,1015.31
2022-07-28T11:17:43.847Z,1015.25
2022-07-28T11:18:44.078Z,1015.29
2022-07-28T11:20:16.473Z,1015.26
2022-07-28T11:20:45.677Z,1015.28
2022-07-28T11:21:46.255Z,1015.28
2022-07-28T11:22:46.439Z,1015.30
2022-07-28T11:23:46.454Z,1015.34
2022-07-28T11:24:45.908Z,1015.34
2022-07-28T11:25:46.160Z,1015.31
2022-07-28T11:26:46.431Z,1015.29
2022-07-28T11:27:46.702Z,1015.26
2022-07-28T11:28:46.947Z,1015.20
2022-07-28T11:29:47.212Z,1015.18
2022-07-28T11:30:47.513Z,1015.20
2022-07-28T11:31:47.766Z,1015.15
2022-07-28T11:32:48.025Z,1015.15
2022-07-28T11:33:48.275Z,1015.19
2022-07-28T11:34:48.525Z,1015.18
2022-07-28T11:35:48.804Z,1015.19
2022-07-28T11:36:49.058Z,1015.19
2022-07-28T11:37:49.383Z,1015.14
2022-07-28T11:38:49.637Z,1015.12
2022-07-28T11:39:49.939Z,1015.11
2022-07-28T11:40:50.126Z,1015.08
2022-07-28T11:41:50.433Z,1015.16
2022-07-28T11:42:50.737Z,1015.15
2022-07-28T11:43:51.090Z,1015.10
2022-07-28T11:44:51.279Z,1015.04
2022-07-28T11:45:56.036Z,1015.15
2022-07-28T11:46:52.554Z,1015.10
2022-07-28T11:47:52.221Z,1015.01
2022-07-28T11:48:52.599Z,1015.10
2022-07-28T11:49:52.825Z,1015.10
2022-07-28T11:50:53.073Z,1015.10
2022-07-28T11:51:53.306Z,1015.05
2022-07-28T11:52:53.575Z,1015.14
2022-07-28T11:53:53.890Z,1015.09
2022-07-28T11:54:54.105Z,1015.09
2022-07-28T11:56:02.117Z,1015.09
2022-07-28T11:56:55.724Z,1015.12
2022-07-28T11:57:55.084Z,1015.12
2022-07-28T11:58:55.349Z,1015.09
2022-07-28T11:59:55.618Z,1015.08
2022-07-28T12:00:56.822Z,1015.03
2022-07-28T12:01:56.119Z,1015.08
2022-07-28T12:02:56.430Z,1015.07
2022-07-28T12:03:58.982Z,1015.06
2022-07-28T12:04:56.909Z,1015.03
2022-07-28T12:05:57.195Z,1015.09
2022-07-28T12:06:57.421Z,1015.07
2022-07-28T12:07:57.703Z,1015.03
2022-07-28T12:08:57.955Z,1015.05